createdAt,value
2023-04-07T00:00:41.764Z,86.84
2023-04-07T00:05:43.600Z,86.86
2023-04-07T00:10:45.589Z,87.14
2023-04-07T00:15:47.297Z,87.41
2023-04-07T00:20:49.004Z,87.56
2023-04-07T00:25:50.698Z,87.53
2023-04-07T00:30:52.371Z,87.61
2023-04-07T00:35:54.579Z,87.63
2023-04-07T00:41:00.276Z,87.72
2023-04-07T00:46:02.112Z,87.66
2023-04-07T00:51:05.042Z,87.82
2023-04-07T00:56:06.912Z,87.78
2023-04-07T01:01:15.474Z,87.77
2023-04-07T01:06:21.487Z,87.79
2023-04-07T01:11:28.026Z,87.85
2023-04-07T01:16:34.859Z,87.85
2023-04-07T01:21:38.301Z,87.92
2023-04-07T01:26:40.754Z,88.05
2023-04-07T01:31:43.377Z,88.01
2023-04-07T01:36:46.920Z,87.81
2023-04-07T01:41:51.434Z,87.83
2023-04-07T01:46:55.612Z,88.10
2023-04-07T01:51:58.229Z,88.05
2023-04-07T01:57:00.006Z,88.13
2023-04-07T02:02:01.953Z,87.90
2023-04-07T02:07:11.236Z,88.08
2023-04-07T02:12:17.687Z,88.02
2023-04-07T02:17:30.340Z,87.71
2023-04-07T02:22:33.439Z,87.90
2023-04-07T02:27:35.309Z,88.29
2023-04-07T02:32:36.994Z,88.57
2023-04-07T02:37:39.436Z,88.66
2023-04-07T02:42:41.306Z,88.51
2023-04-07T02:47:43.024Z,88.31
2023-04-07T02:52:44.744Z,88.45
2023-04-07T02:57:48.737Z,88.45
2023-04-07T03:03:00.417Z,88.26
2023-04-07T03:08:04.678Z,88.13
2023-04-07T03:13:08.356Z,88.29
2023-04-07T03:18:11.516Z,88.46
2023-04-07T03:23:15.165Z,88.54
2023-04-07T03:28:17.023Z,88.42
2023-04-07T03:33:19.028Z,88.56
2023-04-07T03:38:21.675Z,88.69
2023-04-07T03:43:26.717Z,88.70
2023-04-07T03:48:29.286Z,88.62
2023-04-07T03:53:57.136Z,88.71
2023-04-07T03:59:12.246Z,88.98
2023-04-07T04:07:11.184Z,89.17
2023-04-07T04:12:17.593Z,89.35
2023-04-07T04:17:35.066Z,89.58
2023-04-07T04:22:38.870Z,89.76
2023-04-07T04:27:41.788Z,89.79
2023-04-07T04:32:50.505Z,89.88
2023-04-07T04:37:54.922Z,89.76
2023-04-07T04:42:56.673Z,89.28
2023-04-07T04:47:59.636Z,88.99
2023-04-07T04:53:01.387Z,89.06
2023-04-07T04:58:03.182Z,89.12
2023-04-07T05:03:13.149Z,89.35
2023-04-07T05:08:17.266Z,89.29
2023-04-07T05:13:19.250Z,89.30
2023-04-07T05:18:21.458Z,89.25
2023-04-07T05:23:25.039Z,89.11
2023-04-07T05:28:27.232Z,88.96
2023-04-07T05:33:30.920Z,88.67
2023-04-07T05:38:32.735Z,88.49
2023-04-07T05:43:38.588Z,88.52
2023-04-07T05:48:41.027Z,88.62
2023-04-07T05:53:42.816Z,88.86
2023-04-07T05:58:46.263Z,88.87
2023-04-07T06:03:48.858Z,88.85
2023-04-07T06:08:56.086Z,88.44
2023-04-07T06:13:58.887Z,88.32
2023-04-07T06:19:01.223Z,88.29
2023-04-07T06:24:04.153Z,87.98
2023-04-07T06:29:06.088Z,87.89
2023-04-07T06:34:07.808Z,87.71
2023-04-07T06:39:09.583Z,87.57
2023-04-07T06:44:11.335Z,87.41
2023-04-07T06:49:13.284Z,87.61
2023-04-07T06:54:15.463Z,87.68
2023-04-07T06:59:17.249Z,87.42
2023-04-07T07:04:19.162Z,87.36
2023-04-07T07:09:22.059Z,87.21
2023-04-07T07:14:23.728Z,87.26
2023-04-07T07:19:25.572Z,86.97
2023-04-07T07:24:29.241Z,86.50
2023-04-07T07:29:31.293Z,85.87
2023-04-07T07:34:33.336Z,85.65
2023-04-07T07:39:35.086Z,85.67
2023-04-07T07:44:36.770Z,85.59
2023-04-07T07:49:38.611Z,85.47
2023-04-07T07:54:40.805Z,85.42
2023-04-07T07:59:42.531Z,85.26
2023-04-07T08:04:44.749Z,85.49
2023-04-07T08:09:46.441Z,85.59
2023-04-07T08:14:49.478Z,85.46
2023-04-07T08:19:51.169Z,85.05
2023-04-07T08:24:52.886Z,85.12
2023-04-07T08:30:01.674Z,85.16
2023-04-07T08:35:03.819Z,84.90
2023-04-07T08:40:06.757Z,84.80
2023-04-07T08:45:09.899Z,84.87
2023-04-07T08:50:12.415Z,85.20
2023-04-07T08:55:14.668Z,85.53
2023-04-07T09:00:16.453Z,85.56
2023-04-07T09:05:18.146Z,85.18
2023-04-07T09:10:19.837Z,84.57
2023-04-07T09:15:22.084Z,84.15
2023-04-07T09:20:23.825Z,84.30
2023-04-07T09:25:29.950Z,84.69
2023-04-07T09:30:33.808Z,85.14
2023-04-07T09:35:54.504Z,84.53
2023-04-07T09:41:25.744Z,85.09
2023-04-07T09:46:29.415Z,85.57
2023-04-07T09:51:31.431Z,85.25
2023-04-07T09:56:33.594Z,85.33
2023-04-07T10:01:36.239Z,84.93
2023-04-07T10:06:38.047Z,84.50
2023-04-07T10:11:41.007Z,84.08
2023-04-07T10:16:44.499Z,84.22
2023-04-07T10:21:51.799Z,84.54
2023-04-07T10:27:01.632Z,84.67
2023-04-07T10:32:03.821Z,85.13
2023-04-07T10:37:13.604Z,85.44
2023-04-07T10:42:41.029Z,85.49
2023-04-07T10:47:58.121Z,85.35
2023-04-07T10:53:07.238Z,84.83
2023-04-07T10:58:39.832Z,85.19
2023-04-07T11:03:52.478Z,85.43
2023-04-07T11:08:54.878Z,85.41
2023-04-07T11:13:56.593Z,85.59
2023-04-07T11:18:58.431Z,86.00
2023-04-07T11:24:00.159Z,86.06
2023-04-07T11:29:01.986Z,86.25
2023-04-07T11:34:05.517Z,86.40
2023-04-07T11:39:20.472Z,86.45
2023-04-07T11:44:22.229Z,86.29
2023-04-07T11:49:25.910Z,86.26
2023-04-07T11:54:27.980Z,86.03
2023-04-07T11:59:29.715Z,85.84
2023-04-07T12:04:31.454Z,86.03
2023-04-07T12:09:36.304Z,86.31
2023-04-07T12:14:38.263Z,86.29
2023-04-07T12:19:40.046Z,86.71
2023-04-07T12:24:42.091Z,87.04
2023-04-07T12:29:43.974Z,87.28
2023-04-07T12:34:45.661Z,87.31
2023-04-07T12:39:47.246Z,87.31
2023-04-07T12:44:48.920Z,87.39
2023-04-07T12:49:51.223Z,87.31
2023-04-07T12:54:53.533Z,87.16
2023-04-07T12:59:55.532Z,87.23
2023-04-07T13:04:57.195Z,87.36
2023-04-07T13:09:59.246Z,87.14
2023-04-07T13:15:01.168Z,87.42
2023-04-07T13:20:04.471Z,87.92
2023-04-07T13:25:06.621Z,87.98
2023-04-07T13:30:11.175Z,87.96
2023-04-07T13:35:13.121Z,87.81
2023-04-07T13:40:14.841Z,87.94
2023-04-07T13:45:16.427Z,88.17
2023-04-07T13:50:18.134Z,88.38
2023-04-07T13:55:20.880Z,88.33
2023-04-07T14:00:22.611Z,88.20
2023-04-07T14:05:24.713Z,88.36
2023-04-07T14:10:27.359Z,88.57
2023-04-07T14:15:29.074Z,88.56
2023-04-07T14:20:30.727Z,88.13
2023-04-07T14:25:32.308Z,88.05
2023-04-07T14:30:38.682Z,87.92
2023-04-07T14:35:40.734Z,87.85
2023-04-07T14:40:42.421Z,87.56
2023-04-07T14:45:45.464Z,87.56
2023-04-07T14:50:50.205Z,87.60
2023-04-07T14:55:58.085Z,87.61
2023-04-07T15:00:59.724Z,87.79
2023-04-07T15:06:01.324Z,87.95
2023-04-07T15:11:07.478Z,88.20
2023-04-07T15:16:11.648Z,88.41
2023-04-07T15:21:14.553Z,88.57
2023-04-07T15:26:16.297Z,88.63
2023-04-07T15:31:18.406Z,88.52
2023-04-07T15:36:20.309Z,88.59
2023-04-07T15:41:23.293Z,88.48
2023-04-07T15:46:25.424Z,88.35
2023-04-07T15:51:27.760Z,88.50
2023-04-07T15:56:29.396Z,88.55
2023-04-07T16:06:32.650Z,88.07
2023-04-07T16:11:34.296Z,87.89
2023-04-07T16:16:37.100Z,87.82
2023-04-07T16:21:39.473Z,87.79
2023-04-07T16:26:41.176Z,87.76
2023-04-07T16:31:44.300Z,87.83
2023-04-07T16:36:47.433Z,87.90
2023-04-07T16:41:49.214Z,87.94
2023-04-07T16:46:51.027Z,88.09
2023-04-07T16:51:52.775Z,88.20
2023-04-07T16:56:54.416Z,88.26
2023-04-07T17:01:56.180Z,88.18
2023-04-07T17:06:57.870Z,88.06
2023-04-07T17:11:59.708Z,87.93
2023-04-07T17:17:02.265Z,87.71
2023-04-07T17:22:04.090Z,87.83
2023-04-07T17:27:05.818Z,87.86
2023-04-07T17:32:09.128Z,87.82
2023-04-07T17:37:10.967Z,87.66
2023-04-07T17:42:12.652Z,87.65
2023-04-07T17:47:14.355Z,87.69
2023-04-07T17:52:16.527Z,87.68
2023-04-07T17:57:19.022Z,87.57
2023-04-07T18:02:21.380Z,87.43
2023-04-07T18:07:23.882Z,87.38
2023-04-07T18:12:25.668Z,87.37
2023-04-07T18:17:27.435Z,87.17
2023-04-07T18:22:29.579Z,87.05
2023-04-07T18:27:31.235Z,87.01
2023-04-07T18:32:33.015Z,86.93
2023-04-07T18:37:36.641Z,86.90
2023-04-07T18:42:38.412Z,87.05
2023-04-07T18:47:40.247Z,87.32
2023-04-07T18:52:42.319Z,87.35
2023-04-07T18:57:44.365Z,87.48
2023-04-07T19:02:46.353Z,87.33
2023-04-07T19:07:49.499Z,87.20
2023-04-07T19:12:51.311Z,87.15
2023-04-07T19:17:52.981Z,87.11
2023-04-07T19:22:54.682Z,87.09
2023-04-07T19:27:57.224Z,87.09
2023-04-07T19:32:59.303Z,86.95
2023-04-07T19:38:02.165Z,86.77
2023-04-07T19:43:03.852Z,86.63
2023-04-07T19:48:06.436Z,86.56
2023-04-07T19:53:08.428Z,86.63
2023-04-07T19:58:10.405Z,86.68
2023-04-07T20:03:12.414Z,86.64
2023-04-07T20:08:14.407Z,86.68
2023-04-07T20:13:16.201Z,86.64
2023-04-07T20:18:18.586Z,86.44
2023-04-07T20:23:22.214Z,86.34
2023-04-07T20:28:24.446Z,86.47
2023-04-07T20:33:26.132Z,86.67
2023-04-07T20:38:27.973Z,86.82
2023-04-07T20:43:29.678Z,86.92
2023-04-07T20:48:32.576Z,87.02
2023-04-07T20:53:34.443Z,87.13
2023-04-07T20:58:36.744Z,87.18
2023-04-07T21:03:38.650Z,87.09
2023-04-07T21:08:41.994Z,87.16
2023-04-07T21:13:48.054Z,87.24
2023-04-07T21:18:51.115Z,87.26
2023-04-07T21:23:52.963Z,87.08
2023-04-07T21:28:54.656Z,86.90
2023-04-07T21:33:56.284Z,86.79
2023-04-07T21:38:58.214Z,86.73
2023-04-07T21:44:01.883Z,86.18
2023-04-07T21:49:10.408Z,86.17
2023-04-07T21:54:17.205Z,86.06
2023-04-07T21:59:18.949Z,85.36
2023-04-07T22:04:21.897Z,85.94
2023-04-07T22:09:24.233Z,86.14
2023-04-07T22:14:26.613Z,86.11
2023-04-07T22:19:28.372Z,86.24
2023-04-07T22:24:30.080Z,86.31
2023-04-07T22:29:31.781Z,86.57
2023-04-07T22:34:33.473Z,86.32
2023-04-07T22:39:35.717Z,86.54
2023-04-07T22:44:37.437Z,86.10
2023-04-07T22:49:39.434Z,85.91
2023-04-07T22:54:41.170Z,85.77
2023-04-07T22:59:42.934Z,85.48
2023-04-07T23:04:44.656Z,85.02
2023-04-07T23:09:47.116Z,84.36
2023-04-07T23:14:54.379Z,84.11
2023-04-07T23:19:56.240Z,83.90
2023-04-07T23:24:58.321Z,84.00
2023-04-07T23:30:00.069Z,84.18
2023-04-07T23:35:01.860Z,84.17
2023-04-07T23:40:06.507Z,84.29
2023-04-07T23:45:09.748Z,84.39
2023-04-07T23:50:13.350Z,84.51
2023-04-07T23:55:15.102Z,84.39
